Flight Briefing for CPX432

Departure Arrival
Miami International Airport (KMIA)
Click to view FAA NOTAMS
Nashville International Airport (KBNA)
Click to view FAA NOTAMS
Departure Time Arrival Time
N/A N/A
Aircraft Distance
B757-200SF 702nm
Departure METAR Arrival METAR
KMIA 180653Z 14007KT 10SM FEW030 SCT045 SCT065 26/23 A3004 RMK AO2 SLP172 T02560233 KBNA 180653Z 31007KT 10SM BKN018 OVC026 06/02 A3005 RMK AO2 SLP177 T00560017 $
Suggested Route
WINCO2 WINCO CHRRI Q118 ATL WESSN JAGIR SWFFT2


View recent IFR Routes data
Notes



Charts and Procedures

Charts for KMIA
No chart available
Charts for KBNA
No chart available

Ventusky Weather